Aduas, Philippines

10:55 PM PHT on January 23, 2017 (GMT +0800)
Angeles / Pampanga | | Change Station

Elev 643 ft 15.17 °N, 120.58 °E | Updated 55 minutes ago

Overcast
Overcast
73 °F
Feels Like 73 °F
N
4
Wind Variable Wind from East

Today
High -- | Low -- °F
--% Chance of Precip.
Yesterday
High -- | Low -- °F
Precip. -- in
Pressure 30.09 in
Visibility 4.3 miles
Clouds Scattered Clouds 1800 ft
Overcast 10000 ft
Dew Point 70 °F
Humidity 88%
Rainfall 0.00 in
Snow Depth Not available.
6:28 AM 5:50 PM
Waning Crescent, 18% visible
METAR RPLC 231400Z 10003KT 7000 -RA SCT018 OVC100 23/21 Q1019 NOSIG RMK A3009
Pressure 30.09 in
Visibility 4.3 miles
Clouds Scattered Clouds 1800 ft
Overcast 10000 ft
Dew Point 70 °F
Humidity 88%
Rainfall 0.00 in
Snow Depth Not available.
6:28 AM 5:50 PM
Waning Crescent, 18% visible
METAR RPLC 231400Z 10003KT 7000 -RA SCT018 OVC100 23/21 Q1019 NOSIG RMK A3009

Get Your Daily Forecast Email!

Thanks for signing up!

Be on the lookout for a verification email in your inbox.

You'll start receiving the daily forecast at 8 AM.

×

10-Day Weather Forecast

No radar image for this location.
×

Almanac

Astronomy

Jan. 23, 2017 Rise Set
Actual Time
Civil Twilight
Nautical Twilight
Astronomical Twilight
Moon
Length of Visible Light
Length of Day
Tomorrow will be .
, % of the Moon is Illuminated

Today's Extremes

Country Highs Country Lows

Community

WunderPhotos

Upload Photos

1,962,540 photos uploaded!

WunderBlog® & News

Nearby

Air Quality

  Air Quality AQ Index Pollutant
Not available.

Snow Depth

Station Depth Elevation

Earthquake Activity

City Distance Mag. Time & Date
Minimum magnitude displayed is 2.5.

Coastal Water Temperatures

Place Temperature

Stations

Nearby Weather Stations

Station Location Temp. Windchill Dew Point Humidity Wind Precip. Elev Updated Type